sensor_id;sensor_type;location;lat;lon;timestamp;P1;durP1;ratioP1;P2;durP2;ratioP2
27438;SDS011;14887;51.252;7.470;2022-07-15T00:00:16;2.70;;;2.20;;
27438;SDS011;14887;51.252;7.470;2022-07-15T00:02:42;2.63;;;2.10;;
27438;SDS011;14887;51.252;7.470;2022-07-15T00:05:08;9.23;;;2.57;;
27438;SDS011;14887;51.252;7.470;2022-07-15T00:07:34;8.73;;;2.87;;
27438;SDS011;14887;51.252;7.470;2022-07-15T00:10:01;6.37;;;2.83;;
27438;SDS011;14887;51.252;7.470;2022-07-15T00:15:19;7.77;;;2.70;;
27438;SDS011;14887;51.252;7.470;2022-07-15T00:17:47;5.53;;;2.93;;
27438;SDS011;14887;51.252;7.470;2022-07-15T00:20:13;7.57;;;2.80;;
27438;SDS011;14887;51.252;7.470;2022-07-15T00:22:40;13.30;;;2.90;;
27438;SDS011;14887;51.252;7.470;2022-07-15T00:25:07;7.97;;;2.90;;
27438;SDS011;14887;51.252;7.470;2022-07-15T00:27:34;5.97;;;2.83;;
27438;SDS011;14887;51.252;7.470;2022-07-15T00:29:59;2.63;;;2.43;;
27438;SDS011;14887;51.252;7.470;2022-07-15T00:32:25;8.70;;;3.30;;
27438;SDS011;14887;51.252;7.470;2022-07-15T00:34:51;8.43;;;2.60;;
27438;SDS011;14887;51.252;7.470;2022-07-15T00:37:17;6.13;;;2.40;;
27438;SDS011;14887;51.252;7.470;2022-07-15T00:39:42;8.03;;;3.23;;
27438;SDS011;14887;51.252;7.470;2022-07-15T00:42:11;11.33;;;3.30;;
27438;SDS011;14887;51.252;7.470;2022-07-15T00:44:57;6.27;;;3.10;;
27438;SDS011;14887;51.252;7.470;2022-07-15T00:47:22;9.83;;;3.40;;
27438;SDS011;14887;51.252;7.470;2022-07-15T00:49:48;21.53;;;4.00;;
27438;SDS011;14887;51.252;7.470;2022-07-15T00:52:13;4.30;;;3.30;;
27438;SDS011;14887;51.252;7.470;2022-07-15T00:54:39;7.70;;;3.70;;
27438;SDS011;14887;51.252;7.470;2022-07-15T00:57:05;7.80;;;3.20;;
27438;SDS011;14887;51.252;7.470;2022-07-15T00:59:31;12.90;;;3.47;;
27438;SDS011;14887;51.252;7.470;2022-07-15T01:01:59;9.90;;;3.33;;
27438;SDS011;14887;51.252;7.470;2022-07-15T01:04:26;5.10;;;3.37;;
27438;SDS011;14887;51.252;7.470;2022-07-15T01:06:54;9.13;;;3.27;;
27438;SDS011;14887;51.252;7.470;2022-07-15T01:09:19;6.90;;;2.90;;
27438;SDS011;14887;51.252;7.470;2022-07-15T01:11:46;10.83;;;3.67;;
27438;SDS011;14887;51.252;7.470;2022-07-15T01:14:12;11.80;;;3.83;;
27438;SDS011;14887;51.252;7.470;2022-07-15T01:16:38;9.20;;;3.20;;
27438;SDS011;14887;51.252;7.470;2022-07-15T01:19:03;5.33;;;3.40;;
27438;SDS011;14887;51.252;7.470;2022-07-15T01:21:29;17.43;;;3.90;;
27438;SDS011;14887;51.252;7.470;2022-07-15T01:23:55;6.73;;;3.40;;
27438;SDS011;14887;51.252;7.470;2022-07-15T01:26:20;4.87;;;3.30;;
27438;SDS011;14887;51.252;7.470;2022-07-15T01:28:46;10.13;;;2.97;;
27438;SDS011;14887;51.252;7.470;2022-07-15T01:31:12;8.23;;;3.03;;
27438;SDS011;14887;51.252;7.470;2022-07-15T01:33:37;8.33;;;3.10;;
27438;SDS011;14887;51.252;7.470;2022-07-15T01:36:03;9.10;;;3.27;;
27438;SDS011;14887;51.252;7.470;2022-07-15T01:38:29;8.87;;;3.47;;
27438;SDS011;14887;51.252;7.470;2022-07-15T01:40:55;7.73;;;3.77;;
27438;SDS011;14887;51.252;7.470;2022-07-15T01:43:21;8.77;;;3.90;;
27438;SDS011;14887;51.252;7.470;2022-07-15T01:45:47;8.33;;;3.63;;
27438;SDS011;14887;51.252;7.470;2022-07-15T01:48:13;9.30;;;3.70;;
27438;SDS011;14887;51.252;7.470;2022-07-15T01:50:58;6.93;;;3.30;;
27438;SDS011;14887;51.252;7.470;2022-07-15T01:53:26;7.57;;;3.20;;
27438;SDS011;14887;51.252;7.470;2022-07-15T01:55:53;7.90;;;3.90;;
27438;SDS011;14887;51.252;7.470;2022-07-15T01:58:19;3.90;;;2.90;;
27438;SDS011;14887;51.252;7.470;2022-07-15T02:00:45;17.53;;;3.77;;
27438;SDS011;14887;51.252;7.470;2022-07-15T02:03:11;8.17;;;3.97;;
27438;SDS011;14887;51.252;7.470;2022-07-15T02:05:37;7.80;;;3.50;;
27438;SDS011;14887;51.252;7.470;2022-07-15T02:08:03;18.07;;;3.90;;
27438;SDS011;14887;51.252;7.470;2022-07-15T02:10:29;14.20;;;3.60;;
27438;SDS011;14887;51.252;7.470;2022-07-15T02:13:10;14.57;;;3.50;;
27438;SDS011;14887;51.252;7.470;2022-07-15T02:15:38;5.40;;;2.90;;
27438;SDS011;14887;51.252;7.470;2022-07-15T02:18:04;8.40;;;3.40;;
27438;SDS011;14887;51.252;7.470;2022-07-15T02:20:31;4.83;;;2.83;;
27438;SDS011;14887;51.252;7.470;2022-07-15T02:22:57;11.07;;;3.20;;
27438;SDS011;14887;51.252;7.470;2022-07-15T02:25:27;12.20;;;3.33;;
27438;SDS011;14887;51.252;7.470;2022-07-15T02:27:55;10.67;;;3.93;;
27438;SDS011;14887;51.252;7.470;2022-07-15T02:30:25;17.53;;;3.80;;
27438;SDS011;14887;51.252;7.470;2022-07-15T02:32:52;3.83;;;3.00;;
27438;SDS011;14887;51.252;7.470;2022-07-15T02:35:18;8.73;;;3.60;;
27438;SDS011;14887;51.252;7.470;2022-07-15T02:37:44;10.40;;;3.10;;
27438;SDS011;14887;51.252;7.470;2022-07-15T02:40:11;8.83;;;3.77;;
27438;SDS011;14887;51.252;7.470;2022-07-15T02:42:37;10.20;;;3.00;;
27438;SDS011;14887;51.252;7.470;2022-07-15T02:45:02;15.17;;;4.30;;
27438;SDS011;14887;51.252;7.470;2022-07-15T02:47:28;12.80;;;3.90;;
27438;SDS011;14887;51.252;7.470;2022-07-15T02:49:54;9.10;;;3.67;;
27438;SDS011;14887;51.252;7.470;2022-07-15T02:52:20;7.30;;;2.93;;
27438;SDS011;14887;51.252;7.470;2022-07-15T02:54:46;12.20;;;3.30;;
27438;SDS011;14887;51.252;7.470;2022-07-15T02:57:11;13.30;;;3.17;;
27438;SDS011;14887;51.252;7.470;2022-07-15T02:59:37;23.17;;;3.43;;
27438;SDS011;14887;51.252;7.470;2022-07-15T03:02:02;8.27;;;3.57;;
27438;SDS011;14887;51.252;7.470;2022-07-15T03:04:28;5.70;;;3.33;;
27438;SDS011;14887;51.252;7.470;2022-07-15T03:06:53;10.33;;;3.50;;
27438;SDS011;14887;51.252;7.470;2022-07-15T03:09:19;11.53;;;3.30;;
27438;SDS011;14887;51.252;7.470;2022-07-15T03:11:45;11.90;;;3.43;;
27438;SDS011;14887;51.252;7.470;2022-07-15T03:14:10;10.07;;;3.03;;
27438;SDS011;14887;51.252;7.470;2022-07-15T03:16:36;6.00;;;2.80;;
27438;SDS011;14887;51.252;7.470;2022-07-15T03:19:02;9.90;;;3.10;;
27438;SDS011;14887;51.252;7.470;2022-07-15T03:21:27;10.83;;;3.20;;
27438;SDS011;14887;51.252;7.470;2022-07-15T03:23:53;12.57;;;2.90;;
27438;SDS011;14887;51.252;7.470;2022-07-15T03:26:19;11.90;;;3.40;;
27438;SDS011;14887;51.252;7.470;2022-07-15T03:28:46;10.93;;;3.30;;
27438;SDS011;14887;51.252;7.470;2022-07-15T03:31:11;10.33;;;3.50;;
27438;SDS011;14887;51.252;7.470;2022-07-15T03:33:37;11.10;;;3.47;;
27438;SDS011;14887;51.252;7.470;2022-07-15T03:36:03;9.30;;;3.40;;
27438;SDS011;14887;51.252;7.470;2022-07-15T03:38:30;7.97;;;3.53;;
27438;SDS011;14887;51.252;7.470;2022-07-15T03:40:55;12.90;;;2.50;;
27438;SDS011;14887;51.252;7.470;2022-07-15T03:43:21;15.83;;;3.63;;
27438;SDS011;14887;51.252;7.470;2022-07-15T03:45:49;12.20;;;3.43;;
27438;SDS011;14887;51.252;7.470;2022-07-15T03:48:14;6.87;;;3.67;;
27438;SDS011;14887;51.252;7.470;2022-07-15T03:50:40;10.50;;;3.17;;
27438;SDS011;14887;51.252;7.470;2022-07-15T03:53:05;9.73;;;3.30;;
27438;SDS011;14887;51.252;7.470;2022-07-15T03:55:31;11.10;;;3.67;;
27438;SDS011;14887;51.252;7.470;2022-07-15T03:57:56;8.33;;;3.37;;
27438;SDS011;14887;51.252;7.470;2022-07-15T04:00:22;12.80;;;4.03;;
27438;SDS011;14887;51.252;7.470;2022-07-15T04:02:48;12.53;;;3.50;;
27438;SDS011;14887;51.252;7.470;2022-07-15T04:05:13;10.47;;;3.10;;
27438;SDS011;14887;51.252;7.470;2022-07-15T04:07:39;8.13;;;3.50;;
27438;SDS011;14887;51.252;7.470;2022-07-15T04:10:05;10.57;;;3.03;;
27438;SDS011;14887;51.252;7.470;2022-07-15T04:12:31;12.03;;;3.17;;
27438;SDS011;14887;51.252;7.470;2022-07-15T04:14:56;13.93;;;3.07;;
27438;SDS011;14887;51.252;7.470;2022-07-15T04:17:22;10.23;;;3.03;;
27438;SDS011;14887;51.252;7.470;2022-07-15T04:19:47;8.47;;;3.33;;
27438;SDS011;14887;51.252;7.470;2022-07-15T04:22:13;14.13;;;3.17;;
27438;SDS011;14887;51.252;7.470;2022-07-15T04:24:39;10.97;;;2.97;;
27438;SDS011;14887;51.252;7.470;2022-07-15T04:27:05;14.40;;;2.90;;
27438;SDS011;14887;51.252;7.470;2022-07-15T04:29:30;8.73;;;3.57;;
27438;SDS011;14887;51.252;7.470;2022-07-15T04:31:56;12.03;;;3.90;;
27438;SDS011;14887;51.252;7.470;2022-07-15T04:34:21;14.47;;;4.37;;
27438;SDS011;14887;51.252;7.470;2022-07-15T04:36:47;3.77;;;2.80;;
27438;SDS011;14887;51.252;7.470;2022-07-15T04:39:13;5.83;;;3.20;;
27438;SDS011;14887;51.252;7.470;2022-07-15T04:41:38;6.10;;;4.07;;
27438;SDS011;14887;51.252;7.470;2022-07-15T04:44:04;5.00;;;3.70;;
27438;SDS011;14887;51.252;7.470;2022-07-15T04:46:29;18.30;;;4.30;;
27438;SDS011;14887;51.252;7.470;2022-07-15T04:48:55;6.40;;;3.97;;
27438;SDS011;14887;51.252;7.470;2022-07-15T04:51:39;8.07;;;4.20;;
27438;SDS011;14887;51.252;7.470;2022-07-15T04:54:05;8.40;;;4.27;;
27438;SDS011;14887;51.252;7.470;2022-07-15T04:56:30;13.90;;;4.00;;
27438;SDS011;14887;51.252;7.470;2022-07-15T04:58:56;8.63;;;3.13;;
27438;SDS011;14887;51.252;7.470;2022-07-15T05:01:22;6.43;;;3.20;;
27438;SDS011;14887;51.252;7.470;2022-07-15T05:03:47;11.93;;;3.83;;
27438;SDS011;14887;51.252;7.470;2022-07-15T05:06:13;9.70;;;3.83;;
27438;SDS011;14887;51.252;7.470;2022-07-15T05:08:38;9.60;;;3.43;;
27438;SDS011;14887;51.252;7.470;2022-07-15T05:11:04;7.07;;;3.00;;
27438;SDS011;14887;51.252;7.470;2022-07-15T05:13:29;11.10;;;3.67;;
27438;SDS011;14887;51.252;7.470;2022-07-15T05:15:56;9.83;;;3.03;;
27438;SDS011;14887;51.252;7.470;2022-07-15T05:18:21;11.17;;;3.80;;
27438;SDS011;14887;51.252;7.470;2022-07-15T05:20:47;11.73;;;3.27;;
27438;SDS011;14887;51.252;7.470;2022-07-15T05:23:12;11.27;;;2.50;;
27438;SDS011;14887;51.252;7.470;2022-07-15T05:25:40;5.23;;;2.20;;
27438;SDS011;14887;51.252;7.470;2022-07-15T05:28:05;10.20;;;2.90;;
27438;SDS011;14887;51.252;7.470;2022-07-15T05:30:31;9.37;;;3.30;;
27438;SDS011;14887;51.252;7.470;2022-07-15T05:32:56;12.30;;;2.60;;
27438;SDS011;14887;51.252;7.470;2022-07-15T05:35:22;8.53;;;2.50;;
27438;SDS011;14887;51.252;7.470;2022-07-15T05:37:48;9.23;;;3.20;;
27438;SDS011;14887;51.252;7.470;2022-07-15T05:40:13;9.03;;;2.53;;
27438;SDS011;14887;51.252;7.470;2022-07-15T05:42:40;16.17;;;3.50;;
27438;SDS011;14887;51.252;7.470;2022-07-15T05:45:06;8.03;;;2.90;;
27438;SDS011;14887;51.252;7.470;2022-07-15T05:47:33;9.40;;;2.60;;
27438;SDS011;14887;51.252;7.470;2022-07-15T05:49:58;10.57;;;3.00;;
27438;SDS011;14887;51.252;7.470;2022-07-15T05:52:24;4.13;;;2.20;;
27438;SDS011;14887;51.252;7.470;2022-07-15T05:54:49;14.90;;;3.07;;
27438;SDS011;14887;51.252;7.470;2022-07-15T05:57:15;7.23;;;2.70;;
27438;SDS011;14887;51.252;7.470;2022-07-15T05:59:41;6.20;;;1.70;;
27438;SDS011;14887;51.252;7.470;2022-07-15T06:02:06;11.30;;;2.60;;
27438;SDS011;14887;51.252;7.470;2022-07-15T06:04:32;15.27;;;2.37;;
27438;SDS011;14887;51.252;7.470;2022-07-15T06:06:57;7.93;;;2.50;;
27438;SDS011;14887;51.252;7.470;2022-07-15T06:09:23;8.70;;;2.30;;
27438;SDS011;14887;51.252;7.470;2022-07-15T06:11:49;11.37;;;2.97;;
27438;SDS011;14887;51.252;7.470;2022-07-15T06:14:14;9.10;;;2.13;;
27438;SDS011;14887;51.252;7.470;2022-07-15T06:16:40;13.07;;;2.30;;
27438;SDS011;14887;51.252;7.470;2022-07-15T06:19:06;7.20;;;1.67;;
27438;SDS011;14887;51.252;7.470;2022-07-15T06:21:34;7.83;;;2.03;;
27438;SDS011;14887;51.252;7.470;2022-07-15T06:24:00;9.20;;;2.60;;
27438;SDS011;14887;51.252;7.470;2022-07-15T06:26:26;6.90;;;1.67;;
27438;SDS011;14887;51.252;7.470;2022-07-15T06:28:51;9.83;;;2.10;;
27438;SDS011;14887;51.252;7.470;2022-07-15T06:31:17;7.17;;;1.90;;
27438;SDS011;14887;51.252;7.470;2022-07-15T06:33:42;9.93;;;1.77;;
27438;SDS011;14887;51.252;7.470;2022-07-15T06:36:08;11.03;;;2.00;;
27438;SDS011;14887;51.252;7.470;2022-07-15T06:38:33;8.83;;;2.27;;
27438;SDS011;14887;51.252;7.470;2022-07-15T06:40:59;5.77;;;1.53;;
27438;SDS011;14887;51.252;7.470;2022-07-15T06:43:24;6.03;;;1.80;;
27438;SDS011;14887;51.252;7.470;2022-07-15T06:45:50;7.80;;;1.77;;
27438;SDS011;14887;51.252;7.470;2022-07-15T06:48:16;9.17;;;2.27;;
27438;SDS011;14887;51.252;7.470;2022-07-15T06:50:41;9.57;;;1.87;;
27438;SDS011;14887;51.252;7.470;2022-07-15T06:53:07;14.70;;;2.13;;
27438;SDS011;14887;51.252;7.470;2022-07-15T06:55:33;6.43;;;2.50;;
27438;SDS011;14887;51.252;7.470;2022-07-15T06:57:58;7.13;;;1.53;;
27438;SDS011;14887;51.252;7.470;2022-07-15T07:00:24;14.60;;;2.20;;
27438;SDS011;14887;51.252;7.470;2022-07-15T07:02:49;5.97;;;1.87;;
27438;SDS011;14887;51.252;7.470;2022-07-15T07:05:15;8.43;;;2.07;;
27438;SDS011;14887;51.252;7.470;2022-07-15T07:07:41;6.70;;;1.80;;
27438;SDS011;14887;51.252;7.470;2022-07-15T07:10:07;19.50;;;2.60;;
27438;SDS011;14887;51.252;7.470;2022-07-15T07:12:34;8.27;;;2.50;;
27438;SDS011;14887;51.252;7.470;2022-07-15T07:14:59;16.53;;;3.20;;
27438;SDS011;14887;51.252;7.470;2022-07-15T07:17:27;15.30;;;2.43;;
27438;SDS011;14887;51.252;7.470;2022-07-15T07:19:52;17.90;;;2.10;;
27438;SDS011;14887;51.252;7.470;2022-07-15T07:22:18;6.87;;;1.90;;
27438;SDS011;14887;51.252;7.470;2022-07-15T07:24:43;11.70;;;2.53;;
27438;SDS011;14887;51.252;7.470;2022-07-15T07:27:10;6.13;;;1.97;;
27438;SDS011;14887;51.252;7.470;2022-07-15T07:29:36;12.10;;;1.97;;
27438;SDS011;14887;51.252;7.470;2022-07-15T07:32:01;12.40;;;1.90;;
27438;SDS011;14887;51.252;7.470;2022-07-15T07:34:27;6.63;;;1.67;;
27438;SDS011;14887;51.252;7.470;2022-07-15T07:36:54;5.60;;;1.70;;
27438;SDS011;14887;51.252;7.470;2022-07-15T07:39:19;5.77;;;1.27;;
27438;SDS011;14887;51.252;7.470;2022-07-15T07:41:45;10.33;;;1.40;;
27438;SDS011;14887;51.252;7.470;2022-07-15T07:44:10;2.33;;;1.27;;
27438;SDS011;14887;51.252;7.470;2022-07-15T07:46:36;5.47;;;1.40;;
27438;SDS011;14887;51.252;7.470;2022-07-15T07:49:02;7.10;;;1.40;;
27438;SDS011;14887;51.252;7.470;2022-07-15T07:51:27;1.00;;;0.90;;
27438;SDS011;14887;51.252;7.470;2022-07-15T07:53:53;5.93;;;1.47;;
27438;SDS011;14887;51.252;7.470;2022-07-15T07:56:18;5.10;;;1.27;;
27438;SDS011;14887;51.252;7.470;2022-07-15T07:58:44;2.00;;;1.10;;
27438;SDS011;14887;51.252;7.470;2022-07-15T08:01:10;3.93;;;1.10;;
27438;SDS011;14887;51.252;7.470;2022-07-15T08:03:35;1.63;;;0.90;;
27438;SDS011;14887;51.252;7.470;2022-07-15T08:06:01;4.13;;;1.20;;
27438;SDS011;14887;51.252;7.470;2022-07-15T08:08:27;5.90;;;1.93;;
27438;SDS011;14887;51.252;7.470;2022-07-15T08:10:54;5.13;;;1.10;;
27438;SDS011;14887;51.252;7.470;2022-07-15T08:13:22;3.47;;;1.43;;
27438;SDS011;14887;51.252;7.470;2022-07-15T08:15:49;3.13;;;1.20;;
27438;SDS011;14887;51.252;7.470;2022-07-15T08:18:15;3.60;;;1.30;;
27438;SDS011;14887;51.252;7.470;2022-07-15T08:20:41;3.60;;;1.17;;
27438;SDS011;14887;51.252;7.470;2022-07-15T08:23:06;5.60;;;1.67;;
27438;SDS011;14887;51.252;7.470;2022-07-15T08:25:33;4.20;;;1.47;;
27438;SDS011;14887;51.252;7.470;2022-07-15T08:28:01;5.63;;;1.43;;
27438;SDS011;14887;51.252;7.470;2022-07-15T08:30:28;6.43;;;1.23;;
27438;SDS011;14887;51.252;7.470;2022-07-15T08:32:55;13.13;;;1.70;;
27438;SDS011;14887;51.252;7.470;2022-07-15T08:35:21;2.43;;;1.33;;
27438;SDS011;14887;51.252;7.470;2022-07-15T08:37:48;3.47;;;1.20;;
27438;SDS011;14887;51.252;7.470;2022-07-15T08:40:14;4.83;;;1.27;;
27438;SDS011;14887;51.252;7.470;2022-07-15T08:42:40;3.43;;;1.33;;
27438;SDS011;14887;51.252;7.470;2022-07-15T08:45:08;4.67;;;1.50;;
27438;SDS011;14887;51.252;7.470;2022-07-15T08:47:35;6.50;;;1.37;;
27438;SDS011;14887;51.252;7.470;2022-07-15T08:50:02;4.97;;;1.10;;
27438;SDS011;14887;51.252;7.470;2022-07-15T08:52:29;5.37;;;1.27;;
27438;SDS011;14887;51.252;7.470;2022-07-15T08:54:58;14.57;;;1.47;;
27438;SDS011;14887;51.252;7.470;2022-07-15T08:57:24;8.73;;;1.80;;
27438;SDS011;14887;51.252;7.470;2022-07-15T08:59:53;3.70;;;1.30;;
27438;SDS011;14887;51.252;7.470;2022-07-15T09:02:19;4.23;;;1.20;;
27438;SDS011;14887;51.252;7.470;2022-07-15T09:15:56;5.93;;;1.20;;
27438;SDS011;14887;51.252;7.470;2022-07-15T09:18:30;5.30;;;1.20;;
27438;SDS011;14887;51.252;7.470;2022-07-15T09:23:50;8.17;;;1.50;;
27438;SDS011;14887;51.252;7.470;2022-07-15T09:26:31;9.93;;;2.30;;
27438;SDS011;14887;51.252;7.470;2022-07-15T09:28:59;3.80;;;1.90;;
27438;SDS011;14887;51.252;7.470;2022-07-15T09:31:29;1.60;;;1.43;;
27438;SDS011;14887;51.252;7.470;2022-07-15T09:34:17;3.53;;;1.40;;
27438;SDS011;14887;51.252;7.470;2022-07-15T09:36:45;4.80;;;1.43;;
27438;SDS011;14887;51.252;7.470;2022-07-15T09:39:16;3.20;;;1.30;;
27438;SDS011;14887;51.252;7.470;2022-07-15T09:41:43;4.07;;;1.20;;
27438;SDS011;14887;51.252;7.470;2022-07-15T09:44:13;2.83;;;1.40;;
27438;SDS011;14887;51.252;7.470;2022-07-15T09:46:40;4.23;;;1.10;;
27438;SDS011;14887;51.252;7.470;2022-07-15T09:51:58;6.27;;;1.90;;
27438;SDS011;14887;51.252;7.470;2022-07-15T09:54:39;3.07;;;1.60;;
27438;SDS011;14887;51.252;7.470;2022-07-15T09:57:09;5.60;;;1.57;;
27438;SDS011;14887;51.252;7.470;2022-07-15T09:59:39;5.53;;;1.43;;
27438;SDS011;14887;51.252;7.470;2022-07-15T10:02:05;8.50;;;1.87;;
27438;SDS011;14887;51.252;7.470;2022-07-15T10:04:30;7.20;;;1.90;;
27438;SDS011;14887;51.252;7.470;2022-07-15T10:06:57;6.83;;;1.90;;
27438;SDS011;14887;51.252;7.470;2022-07-15T10:09:28;2.13;;;1.50;;
27438;SDS011;14887;51.252;7.470;2022-07-15T10:11:59;4.83;;;1.40;;
27438;SDS011;14887;51.252;7.470;2022-07-15T10:31:13;3.37;;;1.23;;
27438;SDS011;14887;51.252;7.470;2022-07-15T10:33:41;3.03;;;1.40;;
27438;SDS011;14887;51.252;7.470;2022-07-15T10:36:07;4.20;;;1.10;;
27438;SDS011;14887;51.252;7.470;2022-07-15T10:38:34;8.17;;;2.20;;
27438;SDS011;14887;51.252;7.470;2022-07-15T10:41:11;10.10;;;1.80;;
27438;SDS011;14887;51.252;7.470;2022-07-15T10:54:03;3.60;;;1.20;;
27438;SDS011;14887;51.252;7.470;2022-07-15T10:56:31;7.37;;;1.73;;
27438;SDS011;14887;51.252;7.470;2022-07-15T11:01:40;3.63;;;1.33;;
27438;SDS011;14887;51.252;7.470;2022-07-15T11:04:22;3.27;;;1.47;;
27438;SDS011;14887;51.252;7.470;2022-07-15T11:09:45;5.73;;;2.03;;
27438;SDS011;14887;51.252;7.470;2022-07-15T11:12:10;3.67;;;1.50;;
27438;SDS011;14887;51.252;7.470;2022-07-15T11:14:54;4.80;;;1.40;;
27438;SDS011;14887;51.252;7.470;2022-07-15T11:19:59;3.70;;;1.47;;
27438;SDS011;14887;51.252;7.470;2022-07-15T11:22:34;2.37;;;1.27;;
27438;SDS011;14887;51.252;7.470;2022-07-15T11:25:16;3.60;;;1.60;;
27438;SDS011;14887;51.252;7.470;2022-07-15T11:27:54;4.00;;;1.50;;
27438;SDS011;14887;51.252;7.470;2022-07-15T11:30:26;2.60;;;1.40;;
27438;SDS011;14887;51.252;7.470;2022-07-15T11:32:56;4.17;;;1.67;;
27438;SDS011;14887;51.252;7.470;2022-07-15T11:35:23;6.97;;;1.40;;
27438;SDS011;14887;51.252;7.470;2022-07-15T11:37:56;6.33;;;1.40;;
27438;SDS011;14887;51.252;7.470;2022-07-15T11:40:23;3.93;;;1.40;;
27438;SDS011;14887;51.252;7.470;2022-07-15T11:43:11;7.90;;;1.80;;
27438;SDS011;14887;51.252;7.470;2022-07-15T11:45:58;4.80;;;1.40;;
27438;SDS011;14887;51.252;7.470;2022-07-15T11:48:24;9.77;;;1.50;;
27438;SDS011;14887;51.252;7.470;2022-07-15T11:50:50;3.27;;;1.43;;
27438;SDS011;14887;51.252;7.470;2022-07-15T11:53:18;3.53;;;1.30;;
27438;SDS011;14887;51.252;7.470;2022-07-15T11:55:51;9.63;;;1.67;;
27438;SDS011;14887;51.252;7.470;2022-07-15T12:01:19;9.23;;;1.60;;
27438;SDS011;14887;51.252;7.470;2022-07-15T12:03:47;7.00;;;1.90;;
27438;SDS011;14887;51.252;7.470;2022-07-15T12:06:15;2.37;;;1.67;;
27438;SDS011;14887;51.252;7.470;2022-07-15T12:08:46;4.10;;;1.80;;
27438;SDS011;14887;51.252;7.470;2022-07-15T12:11:18;5.40;;;1.60;;
27438;SDS011;14887;51.252;7.470;2022-07-15T12:13:51;8.47;;;1.33;;
27438;SDS011;14887;51.252;7.470;2022-07-15T12:16:44;6.00;;;1.47;;
27438;SDS011;14887;51.252;7.470;2022-07-15T12:19:12;4.67;;;1.37;;
27438;SDS011;14887;51.252;7.470;2022-07-15T12:21:50;5.13;;;1.30;;
27438;SDS011;14887;51.252;7.470;2022-07-15T12:24:17;3.70;;;1.40;;
27438;SDS011;14887;51.252;7.470;2022-07-15T12:29:17;3.47;;;1.80;;
27438;SDS011;14887;51.252;7.470;2022-07-15T12:31:50;6.70;;;1.73;;
27438;SDS011;14887;51.252;7.470;2022-07-15T12:34:20;4.33;;;1.30;;
27438;SDS011;14887;51.252;7.470;2022-07-15T12:36:56;9.03;;;1.70;;
27438;SDS011;14887;51.252;7.470;2022-07-15T12:39:22;6.80;;;1.90;;
27438;SDS011;14887;51.252;7.470;2022-07-15T12:42:01;4.43;;;1.30;;
27438;SDS011;14887;51.252;7.470;2022-07-15T12:44:29;4.90;;;1.47;;
27438;SDS011;14887;51.252;7.470;2022-07-15T12:46:59;5.23;;;1.80;;
27438;SDS011;14887;51.252;7.470;2022-07-15T12:52:58;2.77;;;1.53;;
27438;SDS011;14887;51.252;7.470;2022-07-15T12:55:12;6.93;;;1.80;;
27438;SDS011;14887;51.252;7.470;2022-07-15T12:57:46;6.40;;;1.43;;
27438;SDS011;14887;51.252;7.470;2022-07-15T13:00:20;6.77;;;1.83;;
27438;SDS011;14887;51.252;7.470;2022-07-15T13:05:44;2.20;;;1.60;;
27438;SDS011;14887;51.252;7.470;2022-07-15T13:08:12;7.87;;;1.83;;
27438;SDS011;14887;51.252;7.470;2022-07-15T13:10:40;3.03;;;1.37;;
27438;SDS011;14887;51.252;7.470;2022-07-15T13:13:08;5.43;;;1.70;;
27438;SDS011;14887;51.252;7.470;2022-07-15T13:15:34;2.70;;;1.37;;
27438;SDS011;14887;51.252;7.470;2022-07-15T13:18:00;7.50;;;1.90;;
27438;SDS011;14887;51.252;7.470;2022-07-15T13:20:26;8.73;;;1.63;;
27438;SDS011;14887;51.252;7.470;2022-07-15T13:22:52;3.23;;;1.23;;
27438;SDS011;14887;51.252;7.470;2022-07-15T13:25:18;2.50;;;1.10;;
27438;SDS011;14887;51.252;7.470;2022-07-15T13:27:44;4.53;;;1.40;;
27438;SDS011;14887;51.252;7.470;2022-07-15T13:30:10;8.30;;;1.40;;
27438;SDS011;14887;51.252;7.470;2022-07-15T13:32:37;10.73;;;1.43;;
27438;SDS011;14887;51.252;7.470;2022-07-15T13:35:03;3.67;;;1.20;;
27438;SDS011;14887;51.252;7.470;2022-07-15T13:37:30;4.47;;;1.57;;
27438;SDS011;14887;51.252;7.470;2022-07-15T13:39:56;7.33;;;1.50;;
27438;SDS011;14887;51.252;7.470;2022-07-15T13:42:21;2.47;;;1.07;;
27438;SDS011;14887;51.252;7.470;2022-07-15T13:44:49;5.90;;;1.47;;
27438;SDS011;14887;51.252;7.470;2022-07-15T13:47:18;3.43;;;1.10;;
27438;SDS011;14887;51.252;7.470;2022-07-15T13:49:44;4.50;;;1.27;;
27438;SDS011;14887;51.252;7.470;2022-07-15T13:52:29;4.40;;;1.20;;
27438;SDS011;14887;51.252;7.470;2022-07-15T13:54:54;1.97;;;1.50;;
27438;SDS011;14887;51.252;7.470;2022-07-15T13:57:20;5.03;;;0.90;;
27438;SDS011;14887;51.252;7.470;2022-07-15T13:59:46;3.53;;;1.20;;
27438;SDS011;14887;51.252;7.470;2022-07-15T14:02:11;2.87;;;1.10;;
27438;SDS011;14887;51.252;7.470;2022-07-15T14:04:37;3.50;;;1.00;;
27438;SDS011;14887;51.252;7.470;2022-07-15T14:07:03;3.67;;;1.30;;
27438;SDS011;14887;51.252;7.470;2022-07-15T14:09:28;7.13;;;1.47;;
27438;SDS011;14887;51.252;7.470;2022-07-15T14:11:54;3.50;;;1.10;;
27438;SDS011;14887;51.252;7.470;2022-07-15T14:14:21;3.83;;;1.03;;
27438;SDS011;14887;51.252;7.470;2022-07-15T14:16:47;4.80;;;1.17;;
27438;SDS011;14887;51.252;7.470;2022-07-15T14:19:13;8.80;;;1.00;;
27438;SDS011;14887;51.252;7.470;2022-07-15T14:21:39;4.47;;;1.53;;
27438;SDS011;14887;51.252;7.470;2022-07-15T14:24:04;1.57;;;0.90;;
27438;SDS011;14887;51.252;7.470;2022-07-15T14:26:30;1.50;;;1.27;;
27438;SDS011;14887;51.252;7.470;2022-07-15T14:28:56;2.90;;;1.20;;
27438;SDS011;14887;51.252;7.470;2022-07-15T14:31:22;1.93;;;0.83;;
27438;SDS011;14887;51.252;7.470;2022-07-15T14:33:47;1.53;;;0.90;;
27438;SDS011;14887;51.252;7.470;2022-07-15T14:36:13;1.93;;;1.00;;
27438;SDS011;14887;51.252;7.470;2022-07-15T14:38:38;1.03;;;0.90;;
27438;SDS011;14887;51.252;7.470;2022-07-15T14:41:06;5.93;;;1.20;;
27438;SDS011;14887;51.252;7.470;2022-07-15T14:43:32;1.90;;;0.87;;
27438;SDS011;14887;51.252;7.470;2022-07-15T14:45:59;5.70;;;1.23;;
27438;SDS011;14887;51.252;7.470;2022-07-15T14:48:25;2.83;;;0.90;;
27438;SDS011;14887;51.252;7.470;2022-07-15T14:50:52;3.10;;;1.13;;
27438;SDS011;14887;51.252;7.470;2022-07-15T14:53:18;5.17;;;1.17;;
27438;SDS011;14887;51.252;7.470;2022-07-15T14:55:44;3.87;;;1.23;;
27438;SDS011;14887;51.252;7.470;2022-07-15T14:58:09;4.10;;;0.97;;
27438;SDS011;14887;51.252;7.470;2022-07-15T15:00:42;4.73;;;1.20;;
27438;SDS011;14887;51.252;7.470;2022-07-15T15:03:08;4.10;;;1.00;;
27438;SDS011;14887;51.252;7.470;2022-07-15T15:05:33;3.97;;;1.77;;
27438;SDS011;14887;51.252;7.470;2022-07-15T15:07:59;2.80;;;1.20;;
27438;SDS011;14887;51.252;7.470;2022-07-15T15:10:25;2.70;;;1.10;;
27438;SDS011;14887;51.252;7.470;2022-07-15T15:12:50;4.27;;;1.20;;
27438;SDS011;14887;51.252;7.470;2022-07-15T15:15:16;2.40;;;1.40;;
27438;SDS011;14887;51.252;7.470;2022-07-15T15:17:41;5.53;;;1.10;;
27438;SDS011;14887;51.252;7.470;2022-07-15T15:20:07;3.80;;;1.20;;
27438;SDS011;14887;51.252;7.470;2022-07-15T15:22:34;2.40;;;0.90;;
27438;SDS011;14887;51.252;7.470;2022-07-15T15:25:01;1.57;;;0.80;;
27438;SDS011;14887;51.252;7.470;2022-07-15T15:27:27;1.40;;;0.77;;
27438;SDS011;14887;51.252;7.470;2022-07-15T15:29:53;1.27;;;0.80;;
27438;SDS011;14887;51.252;7.470;2022-07-15T15:32:18;1.20;;;1.10;;
27438;SDS011;14887;51.252;7.470;2022-07-15T15:34:44;2.13;;;0.90;;
27438;SDS011;14887;51.252;7.470;2022-07-15T15:37:10;1.70;;;0.90;;
27438;SDS011;14887;51.252;7.470;2022-07-15T15:39:36;2.13;;;1.10;;
27438;SDS011;14887;51.252;7.470;2022-07-15T15:42:01;2.43;;;1.00;;
27438;SDS011;14887;51.252;7.470;2022-07-15T15:44:28;1.60;;;1.00;;
27438;SDS011;14887;51.252;7.470;2022-07-15T15:46:54;1.90;;;1.00;;
27438;SDS011;14887;51.252;7.470;2022-07-15T15:49:19;3.60;;;1.10;;
27438;SDS011;14887;51.252;7.470;2022-07-15T15:51:45;4.10;;;1.00;;